Time;durP1;ratioP1;P1;durP2;ratioP2;P2;SDS_P1;SDS_P2;PMS_P1;PMS_P2;Temp;Humidity;BMP_temperature;BMP_pressure;BME280_temperature;BME280_humidity;BME280_pressure;Samples;Min_cycle;Max_cycle;Signal;HPM_P1;HPM_P2
2022/09/16 04:01:24;;;;;;;2.10;2.00;;;10.80;99.90;;;;;;5523776;23;20242;-70
2022/09/16 04:03:52;;;;;;;4.22;3.08;;;10.80;99.90;;;;;;4973875;28;20212;-70
2022/09/16 04:06:18;;;;;;;1.48;1.38;;;10.80;99.90;;;;;;4981287;28;20321;-70
2022/09/16 04:08:49;;;;;;;2.75;2.55;;;10.80;99.90;;;;;;4978903;28;20219;-71
2022/09/16 04:11:16;;;;;;;5.88;3.40;;;10.80;99.90;;;;;;4956369;28;20232;-70
2022/09/16 04:13:43;;;;;;;9.32;3.70;;;10.80;99.90;;;;;;4944236;29;20216;-70
2022/09/16 04:16:09;;;;;;;3.72;3.45;;;10.80;99.90;;;;;;4945856;29;20323;-71
2022/09/16 04:18:37;;;;;;;7.93;2.85;;;10.80;99.90;;;;;;4946402;29;20304;-71
2022/09/16 04:21:05;;;;;;;3.65;2.70;;;10.80;99.90;;;;;;4947738;29;20236;-69
2022/09/16 04:23:31;;;;;;;3.30;3.00;;;10.80;99.90;;;;;;4946341;29;20211;-71
2022/09/16 04:25:59;;;;;;;5.40;4.90;;;10.90;99.90;;;;;;4944220;29;20209;-70
2022/09/16 04:28:29;;;;;;;3.30;2.55;;;10.80;99.90;;;;;;4943987;29;20638;-70
2022/09/16 04:30:59;;;;;;;3.40;3.00;;;10.80;99.90;;;;;;4944587;29;20264;-70
2022/09/16 04:33:28;;;;;;;4.63;4.20;;;10.90;99.90;;;;;;4946399;29;20212;-69
2022/09/16 04:36:02;;;;;;;8.05;3.88;;;10.80;99.90;;;;;;4947828;29;20240;-69
2022/09/16 04:38:29;;;;;;;4.05;3.63;;;10.80;99.90;;;;;;4948682;29;20216;-70
2022/09/16 04:41:00;;;;;;;4.50;4.10;;;10.80;99.90;;;;;;4947493;29;20247;-70
2022/09/16 04:43:26;;;;;;;5.50;4.90;;;10.80;99.90;;;;;;4950354;29;20228;-71
2022/09/16 04:45:53;;;;;;;3.42;3.15;;;10.80;99.90;;;;;;4951070;28;20556;-70
2022/09/16 04:48:20;;;;;;;5.15;4.20;;;10.80;99.90;;;;;;4944576;28;20213;-71
2022/09/16 04:50:46;;;;;;;3.65;3.35;;;10.90;99.90;;;;;;4953138;28;20235;-69
2022/09/16 04:53:15;;;;;;;3.88;3.67;;;10.90;99.90;;;;;;4952619;28;20206;-70
2022/09/16 04:55:41;;;;;;;4.45;2.67;;;10.90;99.90;;;;;;4941359;29;20219;-70
2022/09/16 04:58:08;;;;;;;4.13;3.20;;;10.90;99.90;;;;;;4941265;29;20212;-71
2022/09/16 05:00:35;;;;;;;4.63;3.75;;;11.00;99.90;;;;;;4952547;28;20239;-70
2022/09/16 05:03:01;;;;;;;3.28;2.92;;;11.00;99.90;;;;;;4952341;28;20212;-70
2022/09/16 05:05:28;;;;;;;3.65;3.45;;;11.00;99.90;;;;;;4950728;28;20205;-71
2022/09/16 05:07:55;;;;;;;3.75;3.42;;;11.00;99.90;;;;;;4933987;29;20225;-71
2022/09/16 05:10:23;;;;;;;6.70;2.75;;;11.00;99.90;;;;;;4933548;29;20246;-69
2022/09/16 05:12:51;;;;;;;3.38;3.28;;;11.00;99.90;;;;;;4947525;29;20213;-69
2022/09/16 05:15:18;;;;;;;2.67;2.47;;;11.00;99.90;;;;;;4951791;28;20233;-70
2022/09/16 05:17:45;;;;;;;3.10;2.80;;;11.00;99.90;;;;;;4933797;29;20224;-71
2022/09/16 05:20:13;;;;;;;2.42;2.00;;;11.00;99.90;;;;;;4932752;29;20220;-70
2022/09/16 05:22:39;;;;;;;2.53;2.42;;;11.00;99.90;;;;;;4947054;29;20267;-71
2022/09/16 05:25:07;;;;;;;2.10;1.98;;;11.00;99.90;;;;;;4937360;28;20209;-71
2022/09/16 05:27:35;;;;;;;4.43;2.47;;;11.00;99.90;;;;;;4933605;29;20213;-70
2022/09/16 05:30:02;;;;;;;2.13;2.03;;;11.00;99.90;;;;;;4933330;29;20208;-70
2022/09/16 05:32:28;;;;;;;1.80;1.70;;;11.00;99.90;;;;;;4945322;29;20282;-71
2022/09/16 05:34:55;;;;;;;1.67;1.58;;;11.00;99.90;;;;;;4938898;28;20225;-71
2022/09/16 05:37:22;;;;;;;1.77;1.77;;;11.00;99.90;;;;;;4933848;29;20216;-71
2022/09/16 05:39:48;;;;;;;1.67;1.55;;;11.00;99.90;;;;;;4932832;29;20213;-72
2022/09/16 05:42:15;;;;;;;3.42;2.00;;;11.00;99.90;;;;;;4942779;29;20267;-71
2022/09/16 05:44:43;;;;;;;3.05;2.75;;;11.00;99.90;;;;;;4946902;28;20207;-71
2022/09/16 05:47:10;;;;;;;6.75;3.97;;;11.00;99.90;;;;;;4945166;28;20215;-71
2022/09/16 05:49:37;;;;;;;6.32;2.53;;;11.00;99.90;;;;;;4944503;29;20548;-70
2022/09/16 05:52:04;;;;;;;2.28;1.90;;;11.00;99.90;;;;;;4952402;28;20247;-71
2022/09/16 05:54:31;;;;;;;2.60;2.05;;;11.00;99.90;;;;;;4952302;28;20220;-70
2022/09/16 05:56:58;;;;;;;2.08;1.98;;;11.00;99.90;;;;;;4951001;28;20211;-70
2022/09/16 05:59:24;;;;;;;2.83;2.53;;;11.00;99.90;;;;;;4950531;28;20293;-70
2022/09/16 06:01:52;;;;;;;2.88;2.78;;;11.00;99.90;;;;;;4933261;29;20239;-69
2022/09/16 06:04:19;;;;;;;3.67;3.47;;;11.10;99.90;;;;;;4932944;29;20212;-71
2022/09/16 06:06:47;;;;;;;3.42;2.35;;;11.10;99.90;;;;;;4934941;29;20214;-69
2022/09/16 06:09:16;;;;;;;2.45;2.35;;;11.20;99.90;;;;;;4951474;28;20210;-69
2022/09/16 06:11:45;;;;;;;3.55;2.45;;;11.20;99.90;;;;;;4933036;29;20233;-69
2022/09/16 06:14:12;;;;;;;3.50;1.83;;;11.20;99.90;;;;;;4932541;29;20223;-71
2022/09/16 06:16:40;;;;;;;2.45;2.38;;;11.30;99.90;;;;;;4934737;29;20234;-71
2022/09/16 06:19:11;;;;;;;3.25;2.97;;;11.30;99.90;;;;;;4952654;28;20214;-72
2022/09/16 06:21:39;;;;;;;1.70;1.70;;;11.30;99.90;;;;;;4933681;28;20239;-72
2022/09/16 06:24:07;;;;;;;1.92;1.83;;;11.30;99.90;;;;;;4933031;29;20563;-70
2022/09/16 06:26:35;;;;;;;1.20;1.20;;;11.20;99.90;;;;;;4933227;29;20277;-71
2022/09/16 06:29:02;;;;;;;5.28;1.58;;;11.20;99.90;;;;;;4952079;28;20208;-71
2022/09/16 06:31:29;;;;;;;9.60;1.60;;;11.30;99.90;;;;;;4936701;28;20227;-70
2022/09/16 06:33:57;;;;;;;1.27;1.27;;;11.30;99.90;;;;;;4939894;29;20614;-70
2022/09/16 06:36:27;;;;;;;1.50;1.50;;;11.30;99.90;;;;;;4950964;28;20234;-72
2022/09/16 06:38:54;;;;;;;3.65;1.88;;;11.30;99.90;;;;;;4947670;28;20268;-71
2022/09/16 06:41:22;;;;;;;5.55;2.45;;;11.40;99.90;;;;;;4953008;28;20268;-71
2022/09/16 06:43:50;;;;;;;1.00;1.00;;;11.40;99.90;;;;;;4944204;29;20209;-71
2022/09/16 06:46:18;;;;;;;1.38;1.35;;;11.50;99.90;;;;;;4935751;29;20260;-71
2022/09/16 06:48:46;;;;;;;1.23;1.23;;;11.50;99.90;;;;;;4936411;29;20216;-71
2022/09/16 06:51:17;;;;;;;1.30;0.90;;;11.60;99.90;;;;;;4942464;29;20229;-72
2022/09/16 06:53:46;;;;;;;1.20;0.90;;;11.80;99.90;;;;;;4943956;29;20206;-72
2022/09/16 06:56:14;;;;;;;2.25;0.90;;;11.80;99.90;;;;;;4935945;29;20718;-73
2022/09/16 06:58:42;;;;;;;1.75;0.95;;;11.80;99.90;;;;;;4936512;29;20210;-72
2022/09/16 07:01:11;;;;;;;12.60;1.50;;;11.80;99.90;;;;;;4941483;29;20238;-72
2022/09/16 07:03:39;;;;;;;1.65;1.65;;;11.90;99.90;;;;;;4952096;28;20207;-71
2022/09/16 07:06:07;;;;;;;2.50;0.77;;;12.00;99.90;;;;;;4935790;29;20223;-71
2022/09/16 07:08:36;;;;;;;2.25;0.68;;;12.00;99.90;;;;;;4938268;29;20202;-71
2022/09/16 07:11:06;;;;;;;10.68;1.10;;;12.00;99.90;;;;;;4949091;29;20313;-69
2022/09/16 07:13:33;;;;;;;0.75;0.73;;;12.10;99.90;;;;;;4951655;28;20217;-70
2022/09/16 07:16:01;;;;;;;7.35;1.05;;;12.10;99.90;;;;;;4949469;29;20263;-71
2022/09/16 07:18:28;;;;;;;6.82;0.50;;;12.10;99.90;;;;;;4955567;28;20206;-71
2022/09/16 07:21:02;;;;;;;0.75;0.75;;;12.10;99.90;;;;;;4953156;28;20234;-71
2022/09/16 07:23:30;;;;;;;0.68;0.68;;;12.20;99.90;;;;;;4952549;29;20270;-71
2022/09/16 07:26:01;;;;;;;0.70;0.70;;;12.20;99.90;;;;;;4934882;29;20258;-71
2022/09/16 07:28:30;;;;;;;0.30;0.30;;;12.30;99.90;;;;;;4935634;29;20207;-71
2022/09/16 07:30:56;;;;;;;1.05;0.50;;;12.30;99.90;;;;;;4935320;29;20352;-72
2022/09/16 07:33:23;;;;;;;0.30;0.30;;;12.40;99.90;;;;;;4953548;29;20213;-73
2022/09/16 07:35:50;;;;;;;0.30;0.30;;;12.40;99.90;;;;;;4954402;28;20230;-75
2022/09/16 07:38:16;;;;;;;4.53;0.75;;;12.40;99.90;;;;;;4954794;28;20217;-71
2022/09/16 07:40:43;;;;;;;0.30;0.30;;;12.50;99.90;;;;;;4954153;28;20586;-73
2022/09/16 07:43:11;;;;;;;0.82;0.63;;;12.50;99.90;;;;;;4952128;28;20215;-71
2022/09/16 07:45:39;;;;;;;4.57;0.63;;;12.60;99.90;;;;;;4934874;28;20290;-71
2022/09/16 07:48:05;;;;;;;0.30;0.30;;;12.60;99.90;;;;;;4935022;29;20266;-71
2022/09/16 07:50:32;;;;;;;4.22;0.73;;;12.60;99.90;;;;;;4934946;29;20204;-71
2022/09/16 07:52:59;;;;;;;0.75;0.30;;;12.70;99.90;;;;;;4950234;29;20684;-71
2022/09/16 07:55:26;;;;;;;0.63;0.43;;;12.70;99.90;;;;;;4935862;28;20239;-72
2022/09/16 07:57:53;;;;;;;3.28;0.40;;;12.80;99.90;;;;;;4935101;29;20224;-71
2022/09/16 08:00:20;;;;;;;0.52;0.52;;;12.80;99.90;;;;;;4934037;29;20207;-71
2022/09/16 08:02:48;;;;;;;0.75;0.30;;;12.90;99.90;;;;;;4948397;29;20215;-71
2022/09/16 08:05:15;;;;;;;0.90;0.30;;;13.00;99.90;;;;;;4937892;28;20289;-71
2022/09/16 08:07:42;;;;;;;1.73;0.52;;;13.00;99.90;;;;;;4937595;29;20271;-71
2022/09/16 08:10:09;;;;;;;3.03;0.60;;;13.10;99.90;;;;;;4939653;29;20216;-71
2022/09/16 08:12:36;;;;;;;1.05;0.35;;;13.10;99.90;;;;;;4951923;29;20233;-71
2022/09/16 08:15:02;;;;;;;0.60;0.40;;;13.20;99.90;;;;;;4945137;28;20221;-71
2022/09/16 08:17:29;;;;;;;0.97;0.30;;;13.20;99.90;;;;;;4938483;29;20495;-71
2022/09/16 08:19:57;;;;;;;0.40;0.40;;;13.30;99.90;;;;;;4934793;29;20476;-71
2022/09/16 08:22:24;;;;;;;0.40;0.40;;;13.40;99.90;;;;;;4945164;29;20491;-72
2022/09/16 08:24:51;;;;;;;2.23;0.87;;;13.40;99.90;;;;;;4940284;28;20821;-71
2022/09/16 08:27:18;;;;;;;0.77;0.50;;;13.50;99.90;;;;;;4934646;29;20584;-70
2022/09/16 08:29:44;;;;;;;3.70;0.87;;;13.50;99.90;;;;;;4933744;29;20696;-70
2022/09/16 08:32:11;;;;;;;3.70;0.67;;;13.60;99.90;;;;;;4942491;29;20498;-71
2022/09/16 08:34:39;;;;;;;0.40;0.40;;;13.70;99.90;;;;;;4941688;28;20469;-70
2022/09/16 08:37:07;;;;;;;0.23;0.23;;;13.70;99.90;;;;;;4934114;29;20530;-71
2022/09/16 08:39:34;;;;;;;0.40;0.40;;;13.80;99.90;;;;;;4933970;29;20490;-71
2022/09/16 08:42:29;;;;;;;1.20;0.40;;;13.80;99.90;;;;;;4940058;29;20487;-70
2022/09/16 08:45:08;;;;;;;1.13;0.30;;;13.90;99.90;;;;;;4946764;29;20470;-71
2022/09/16 08:47:45;;;;;;;0.30;0.30;;;14.00;99.90;;;;;;4953335;28;20834;-72
2022/09/16 08:50:16;;;;;;;1.77;0.50;;;14.10;99.90;;;;;;4953347;28;20839;-71
2022/09/16 08:52:45;;;;;;;2.20;0.30;;;14.40;99.90;;;;;;4951276;28;20474;-72
2022/09/16 08:55:16;;;;;;;6.17;0.50;;;14.60;99.90;;;;;;4936825;28;20469;-71
2022/09/16 08:57:52;;;;;;;0.83;0.60;;;14.90;99.90;;;;;;4933960;29;20519;-71
2022/09/16 09:00:19;;;;;;;1.20;0.63;;;15.00;99.90;;;;;;4933039;29;20468;-70
2022/09/16 09:02:51;;;;;;;4.57;0.67;;;15.00;99.90;;;;;;4945530;29;20465;-70
2022/09/16 09:05:25;;;;;;;0.40;0.40;;;15.10;99.90;;;;;;4936285;28;20892;-70
2022/09/16 09:08:04;;;;;;;0.50;0.50;;;15.00;99.90;;;;;;4934067;29;20475;-71
2022/09/16 09:10:40;;;;;;;0.20;0.20;;;15.00;99.90;;;;;;4935483;29;20473;-71
2022/09/16 09:13:14;;;;;;;0.47;0.47;;;15.00;99.90;;;;;;4951551;28;20494;-71
2022/09/16 09:15:46;;;;;;;2.73;0.30;;;15.00;99.90;;;;;;4944984;29;20492;-71
2022/09/16 09:18:24;;;;;;;0.30;0.30;;;15.00;99.90;;;;;;4953293;28;20542;-71
2022/09/16 09:20:57;;;;;;;0.20;0.20;;;15.00;99.90;;;;;;4952763;28;20504;-72
2022/09/16 09:23:47;;;;;;;2.00;0.50;;;14.90;99.90;;;;;;4950670;28;20477;-71
2022/09/16 09:26:21;;;;;;;2.40;0.80;;;14.90;99.90;;;;;;4942414;29;20985;-70
2022/09/16 09:29:23;;;;;;;0.50;0.33;;;14.90;99.90;;;;;;4933748;29;20531;-71
2022/09/16 09:31:57;;;;;;;3.50;0.63;;;15.00;99.90;;;;;;4936224;29;20602;-70
2022/09/16 09:34:37;;;;;;;0.40;0.40;;;15.10;99.90;;;;;;4950044;29;20486;-71
2022/09/16 09:37:19;;;;;;;8.00;0.40;;;15.30;99.90;;;;;;4933470;29;20495;-70
2022/09/16 09:40:00;;;;;;;3.50;0.73;;;15.30;99.90;;;;;;4932989;29;20462;-71
2022/09/16 09:42:30;;;;;;;0.97;0.37;;;15.30;99.90;;;;;;4942016;29;20595;-70
2022/09/16 09:45:02;;;;;;;0.80;0.77;;;15.50;99.90;;;;;;4945926;28;20951;-70
2022/09/16 09:47:34;;;;;;;0.40;0.40;;;15.60;99.90;;;;;;4933108;29;21031;-70
2022/09/16 09:50:13;;;;;;;0.73;0.60;;;15.70;99.90;;;;;;4932916;29;20465;-72
2022/09/16 09:52:48;;;;;;;2.30;0.43;;;15.90;99.90;;;;;;4942782;29;20496;-70
2022/09/16 09:55:18;;;;;;;0.97;0.40;;;16.00;99.90;;;;;;4943793;28;20466;-71
2022/09/16 09:57:56;;;;;;;2.93;0.50;;;16.00;99.90;;;;;;4933231;29;20504;-70
2022/09/16 10:00:22;;;;;;;1.17;0.53;;;16.10;99.90;;;;;;4932668;29;20466;-71
2022/09/16 10:02:49;;;;;;;0.40;0.20;;;16.00;99.90;;;;;;4943923;29;20903;-71
2022/09/16 10:05:22;;;;;;;6.40;0.57;;;15.90;99.90;;;;;;4945195;28;20471;-70
2022/09/16 10:07:50;;;;;;;0.67;0.67;;;15.80;99.90;;;;;;4937278;29;20466;-70
2022/09/16 10:10:21;;;;;;;1.60;0.70;;;15.80;99.90;;;;;;4936381;29;20817;-70
2022/09/16 10:12:48;;;;;;;3.40;0.30;;;15.90;99.90;;;;;;4947078;29;20481;-70
2022/09/16 10:15:24;;;;;;;0.27;0.27;;;16.10;99.90;;;;;;4947520;28;20469;-70
2022/09/16 10:17:52;;;;;;;0.20;0.20;;;16.10;99.90;;;;;;4997221;23;20506;-70
2022/09/16 10:20:26;;;;;;;2.63;0.50;;;16.10;99.90;;;;;;4994616;28;20463;-70
2022/09/16 10:22:58;;;;;;;1.30;0.33;;;15.90;99.90;;;;;;4988445;28;20980;-70
2022/09/16 10:25:26;;;;;;;0.20;0.20;;;15.80;99.90;;;;;;4982969;28;20819;-69
2022/09/16 10:27:58;;;;;;;0.63;0.40;;;15.70;99.90;;;;;;4961900;28;20486;-70
2022/09/16 10:30:26;;;;;;;0.43;0.43;;;15.70;99.90;;;;;;4955547;28;20477;-70
2022/09/16 10:32:57;;;;;;;2.97;0.23;;;15.70;99.90;;;;;;4970136;28;20471;-70
2022/09/16 10:35:26;;;;;;;1.20;0.30;;;15.80;99.90;;;;;;4975553;28;20943;-70
2022/09/16 10:37:56;;;;;;;0.30;0.30;;;16.00;99.90;;;;;;4961722;28;20497;-70
2022/09/16 10:40:24;;;;;;;0.50;0.20;;;16.10;99.90;;;;;;4961964;28;20471;-70
2022/09/16 10:42:54;;;;;;;0.20;0.20;;;16.20;99.90;;;;;;4970353;28;20551;-70
2022/09/16 10:45:26;;;;;;;0.60;0.23;;;16.10;99.90;;;;;;4964937;28;20651;-70
2022/09/16 10:47:56;;;;;;;0.93;0.47;;;16.00;99.90;;;;;;4955732;28;20638;-70
2022/09/16 10:50:24;;;;;;;1.70;0.43;;;15.80;99.90;;;;;;4969523;28;20478;-70
2022/09/16 10:52:52;;;;;;;0.50;0.47;;;15.70;99.90;;;;;;4969508;28;20562;-70
2022/09/16 10:55:25;;;;;;;7.07;1.23;;;15.70;99.90;;;;;;4955004;28;20491;-70
2022/09/16 10:57:54;;;;;;;0.10;0.10;;;15.60;99.90;;;;;;4955281;28;20492;-70
2022/09/16 11:00:22;;;;;;;1.30;0.70;;;15.50;99.90;;;;;;4970760;28;20978;-70
2022/09/16 11:03:28;;;;;;;0.40;0.20;;;15.50;99.90;;;;;;4965693;28;20848;-70
2022/09/16 11:06:07;;;;;;;4.87;0.50;;;15.60;99.90;;;;;;4942321;28;20474;-70
2022/09/16 11:08:55;;;;;;;0.53;0.53;;;15.60;99.90;;;;;;4955249;28;20491;-70
2022/09/16 11:11:34;;;;;;;0.93;0.40;;;15.60;99.90;;;;;;4956292;28;20482;-70
2022/09/16 11:14:11;;;;;;;0.60;0.60;;;15.70;99.90;;;;;;4963038;28;20479;-71
2022/09/16 11:16:57;;;;;;;1.70;0.37;;;15.70;99.90;;;;;;4959598;28;20496;-71
2022/09/16 11:19:30;;;;;;;0.30;0.30;;;15.60;99.90;;;;;;4964550;28;20459;-70
2022/09/16 11:22:09;;;;;;;0.10;0.10;;;15.30;99.90;;;;;;4974973;28;20483;-70
2022/09/16 11:25:01;;;;;;;0.20;0.20;;;14.90;99.90;;;;;;4983320;28;20465;-71
2022/09/16 11:27:40;;;;;;;7.07;0.40;;;14.60;99.90;;;;;;4966394;28;20553;-70
2022/09/16 11:30:14;;;;;;;0.20;0.20;;;14.60;99.90;;;;;;4956919;28;20474;-71
2022/09/16 11:33:14;;;;;;;2.97;0.83;;;14.60;99.90;;;;;;4954716;28;20483;-71
2022/09/16 11:36:02;;;;;;;0.20;0.20;;;14.70;99.90;;;;;;4956431;28;20473;-70
2022/09/16 11:38:37;;;;;;;0.33;0.33;;;14.60;99.90;;;;;;4964529;28;20592;-70
2022/09/16 11:41:11;;;;;;;0.87;0.20;;;14.40;99.90;;;;;;4973377;28;20561;-70
2022/09/16 11:44:14;;;;;;;0.97;0.20;;;14.30;99.90;;;;;;4973821;28;20474;-70
2022/09/16 11:46:52;;;;;;;5.93;0.40;;;14.20;99.90;;;;;;4971971;28;20490;-70
2022/09/16 11:49:39;;;;;;;1.90;0.30;;;14.10;99.90;;;;;;4961975;28;20474;-70
2022/09/16 11:52:19;;;;;;;3.90;0.77;;;14.20;99.90;;;;;;4954703;28;20471;-71
2022/09/16 11:55:04;;;;;;;0.40;0.20;;;14.30;99.90;;;;;;4953637;28;20928;-71
2022/09/16 11:57:36;;;;;;;0.30;0.30;;;14.30;99.90;;;;;;4966618;28;20493;-71
2022/09/16 12:00:08;;;;;;;0.77;0.30;;;14.40;99.90;;;;;;4958686;28;20464;-71
2022/09/16 12:02:41;;;;;;;1.90;0.20;;;14.50;99.90;;;;;;4954091;28;20966;-71
2022/09/16 12:05:18;;;;;;;3.40;0.40;;;14.60;99.90;;;;;;4954273;28;20593;-70
2022/09/16 12:07:49;;;;;;;0.20;0.20;;;14.70;99.90;;;;;;4968450;28;20490;-70
2022/09/16 12:10:21;;;;;;;0.87;0.30;;;14.70;99.90;;;;;;4972249;28;20489;-70
2022/09/16 12:12:52;;;;;;;1.77;0.40;;;14.80;99.90;;;;;;4955994;28;20506;-70
2022/09/16 12:15:24;;;;;;;6.13;0.83;;;14.90;99.90;;;;;;4964147;28;20467;-70
2022/09/16 12:17:57;;;;;;;1.30;0.30;;;15.00;99.90;;;;;;4953778;28;20507;-70
2022/09/16 12:20:27;;;;;;;0.47;0.20;;;15.10;99.90;;;;;;4953811;28;20471;-71
2022/09/16 12:23:01;;;;;;;1.33;0.30;;;15.20;99.90;;;;;;4958300;28;20476;-71
2022/09/16 12:25:34;;;;;;;0.20;0.20;;;15.30;99.90;;;;;;4972776;28;20466;-71
2022/09/16 12:28:04;;;;;;;0.37;0.37;;;15.40;99.90;;;;;;4956398;28;20492;-71
2022/09/16 12:30:36;;;;;;;2.53;1.23;;;15.70;99.90;;;;;;4955415;28;20479;-71
2022/09/16 12:33:11;;;;;;;0.30;0.30;;;16.00;99.90;;;;;;4960359;28;20468;-71
2022/09/16 12:35:41;;;;;;;1.90;0.40;;;16.20;99.90;;;;;;4969675;28;20470;-71
2022/09/16 12:38:15;;;;;;;0.40;0.40;;;16.20;99.90;;;;;;4962281;28;20494;-71
2022/09/16 12:40:58;;;;;;;0.53;0.53;;;16.00;99.90;;;;;;4952823;28;20474;-71
2022/09/16 12:43:41;;;;;;;0.73;0.33;;;15.60;99.90;;;;;;4953191;29;20476;-71
2022/09/16 12:46:39;;;;;;;0.20;0.20;;;15.20;99.90;;;;;;4963324;28;20467;-71
2022/09/16 12:49:40;;;;;;;0.40;0.40;;;14.70;99.90;;;;;;4952979;28;20529;-70
2022/09/16 12:52:26;;;;;;;0.17;0.17;;;14.40;99.90;;;;;;4953247;29;20473;-71
2022/09/16 12:55:33;;;;;;;1.40;0.30;;;14.20;99.90;;;;;;4958918;28;20469;-71
2022/09/16 12:58:18;;;;;;;0.47;0.23;;;14.00;99.90;;;;;;4967154;28;20494;-71
2022/09/16 13:00:55;;;;;;;0.20;0.20;;;13.80;99.90;;;;;;4972131;28;20473;-71
2022/09/16 13:03:26;;;;;;;1.80;0.30;;;13.70;99.90;;;;;;4972408;28;20218;-71
2022/09/16 13:05:55;;;;;;;1.30;0.43;;;13.70;99.90;;;;;;4969904;28;20873;-71
2022/09/16 13:08:26;;;;;;;5.57;0.50;;;13.80;99.90;;;;;;4969729;28;20483;-71
2022/09/16 13:10:58;;;;;;;0.43;0.33;;;13.80;99.90;;;;;;4971486;28;20490;-71
2022/09/16 13:13:32;;;;;;;0.20;0.20;;;13.90;99.90;;;;;;4972203;28;20477;-70
2022/09/16 13:16:01;;;;;;;0.20;0.20;;;13.90;99.90;;;;;;4970615;28;20479;-71
2022/09/16 13:18:41;;;;;;;1.80;0.40;;;13.90;99.90;;;;;;4954289;28;20494;-71
2022/09/16 13:21:23;;;;;;;2.40;0.57;;;14.00;99.90;;;;;;4952607;28;20948;-70
2022/09/16 13:23:59;;;;;;;2.10;0.33;;;14.10;99.90;;;;;;4952476;28;20973;-71
2022/09/16 13:26:37;;;;;;;0.37;0.37;;;14.10;99.90;;;;;;4964514;28;20466;-71
2022/09/16 13:29:23;;;;;;;3.83;0.43;;;14.20;99.90;;;;;;4965393;28;20463;-70
2022/09/16 13:31:50;;;;;;;0.20;0.20;;;14.30;99.90;;;;;;4952465;28;21027;-71
2022/09/16 13:34:18;;;;;;;5.40;0.40;;;14.50;99.90;;;;;;4952545;28;20467;-71
2022/09/16 13:36:46;;;;;;;0.30;0.30;;;14.50;99.90;;;;;;4963446;28;20549;-71
2022/09/16 13:39:15;;;;;;;1.80;0.30;;;14.50;99.90;;;;;;4963813;28;20490;-70
2022/09/16 13:41:44;;;;;;;0.20;0.20;;;14.60;99.90;;;;;;4951818;28;20470;-70
2022/09/16 13:44:29;;;;;;;0.20;0.20;;;14.80;99.90;;;;;;4951653;28;20466;-69
2022/09/16 13:47:14;;;;;;;1.03;0.30;;;15.00;99.90;;;;;;4964810;28;20533;-70
2022/09/16 13:49:44;;;;;;;0.10;0.10;;;15.10;99.90;;;;;;4963762;28;20506;-70
2022/09/16 13:52:16;;;;;;;1.30;0.70;;;15.10;99.90;;;;;;4962541;28;20820;-70
2022/09/16 13:54:48;;;;;;;1.50;0.50;;;15.00;99.90;;;;;;4963406;28;20463;-69
2022/09/16 13:57:26;;;;;;;0.80;0.37;;;14.90;99.90;;;;;;4971979;28;20510;-70
2022/09/16 14:00:06;;;;;;;7.60;0.53;;;14.50;99.90;;;;;;4951893;28;20466;-71
2022/09/16 14:02:48;;;;;;;0.70;0.70;;;14.20;99.90;;;;;;4968506;28;20476;-71
2022/09/16 14:05:32;;;;;;;3.70;0.40;;;14.00;99.90;;;;;;4955458;28;20450;-70
2022/09/16 14:08:10;;;;;;;0.32;0.30;;;13.60;99.90;;;;;;4952504;28;20524;-70
2022/09/16 14:10:47;;;;;;;0.20;0.20;;;13.40;99.90;;;;;;4952541;28;20229;-71
2022/09/16 14:13:17;;;;;;;2.65;0.63;;;13.40;99.90;;;;;;4971458;28;20508;-72
2022/09/16 14:15:48;;;;;;;1.50;0.40;;;13.30;99.90;;;;;;4952667;28;20226;-71
2022/09/16 14:18:17;;;;;;;0.30;0.30;;;13.30;99.90;;;;;;4955334;28;20502;-70
2022/09/16 14:21:00;;;;;;;1.85;0.60;;;13.40;99.90;;;;;;4960668;28;20206;-67
2022/09/16 14:23:29;;;;;;;0.77;0.50;;;13.40;99.90;;;;;;4964671;28;20571;-65
2022/09/16 14:25:58;;;;;;;2.90;0.80;;;13.40;99.90;;;;;;4967264;28;20482;-66
2022/09/16 14:28:27;;;;;;;3.20;0.90;;;13.50;99.90;;;;;;4955354;28;20496;-66
2022/09/16 14:30:55;;;;;;;1.87;0.30;;;13.60;99.90;;;;;;4970469;28;20860;-66
2022/09/16 14:33:27;;;;;;;7.47;1.53;;;13.60;99.90;;;;;;4963073;28;20466;-66
2022/09/16 14:35:55;;;;;;;1.23;0.30;;;13.60;99.90;;;;;;4964545;28;20474;-66
2022/09/16 14:38:29;;;;;;;5.60;0.90;;;13.60;99.90;;;;;;4963770;28;20494;-66
2022/09/16 14:40:57;;;;;;;1.27;0.85;;;13.50;99.90;;;;;;4965674;28;20901;-65
2022/09/16 14:43:25;;;;;;;0.50;0.30;;;13.50;99.90;;;;;;4970012;28;20217;-67
2022/09/16 14:45:54;;;;;;;0.40;0.40;;;13.50;99.90;;;;;;4960663;28;20470;-68
2022/09/16 14:48:30;;;;;;;0.40;0.30;;;13.30;99.90;;;;;;4964440;28;20227;-69
2022/09/16 14:50:58;;;;;;;0.20;0.20;;;13.20;99.90;;;;;;4958776;28;20472;-69
2022/09/16 14:53:30;;;;;;;1.20;0.68;;;13.00;99.90;;;;;;4971325;28;20632;-68
2022/09/16 14:55:58;;;;;;;3.40;0.40;;;12.80;99.90;;;;;;4972440;28;20219;-70
2022/09/16 14:58:28;;;;;;;12.50;0.77;;;12.70;99.90;;;;;;4971819;28;20229;-69
2022/09/16 15:00:58;;;;;;;1.95;0.20;;;12.60;99.90;;;;;;4966179;28;20208;-69
2022/09/16 15:03:30;;;;;;;1.13;0.38;;;12.40;99.90;;;;;;4968581;28;20237;-69
2022/09/16 15:06:03;;;;;;;0.40;0.40;;;12.40;99.90;;;;;;4962725;28;20217;-69
2022/09/16 15:08:34;;;;;;;0.30;0.30;;;12.20;99.90;;;;;;4961791;28;20249;-68
2022/09/16 15:11:09;;;;;;;0.20;0.20;;;12.10;99.90;;;;;;4964666;28;20211;-64
2022/09/16 15:13:38;;;;;;;2.20;0.73;;;12.10;99.90;;;;;;4969609;28;20217;-67
2022/09/16 15:16:10;;;;;;;0.30;0.30;;;12.00;99.90;;;;;;4971168;28;20206;-69
2022/09/16 15:18:39;;;;;;;0.40;0.40;;;12.00;99.90;;;;;;4967608;28;20230;-68
2022/09/16 15:21:09;;;;;;;1.38;0.50;;;11.90;99.90;;;;;;4970626;28;20215;-66
2022/09/16 15:23:39;;;;;;;1.17;0.50;;;11.90;99.90;;;;;;4970715;28;20206;-71
2022/09/16 15:26:13;;;;;;;0.30;0.30;;;11.80;99.90;;;;;;4958095;28;20208;-71
2022/09/16 15:28:53;;;;;;;4.85;0.60;;;11.80;99.90;;;;;;4972154;28;20314;-72
2022/09/16 15:31:33;;;;;;;1.05;0.95;;;11.80;99.90;;;;;;4972116;28;20212;-73
2022/09/16 15:34:01;;;;;;;0.45;0.30;;;11.80;99.90;;;;;;4967913;28;20260;-71
2022/09/16 15:36:39;;;;;;;3.90;0.65;;;11.80;99.90;;;;;;4970625;28;20220;-71
2022/09/16 15:39:23;;;;;;;12.27;0.82;;;11.80;99.90;;;;;;4972310;28;20743;-71
2022/09/16 15:42:04;;;;;;;1.85;0.35;;;11.80;99.90;;;;;;4968240;28;20233;-71
2022/09/16 15:44:32;;;;;;;1.05;0.45;;;11.80;99.90;;;;;;4963701;28;20217;-72
2022/09/16 15:46:59;;;;;;;1.60;0.85;;;11.70;99.90;;;;;;4968284;28;20318;-72
2022/09/16 15:49:29;;;;;;;0.50;0.50;;;11.70;99.90;;;;;;4964586;28;20212;-72
2022/09/16 15:52:04;;;;;;;0.40;0.40;;;11.70;99.90;;;;;;4967967;28;20215;-72
2022/09/16 15:54:37;;;;;;;2.50;0.38;;;11.70;99.90;;;;;;4971444;28;20286;-72
2022/09/16 15:57:10;;;;;;;15.48;0.95;;;11.70;99.90;;;;;;4968697;28;20231;-73
2022/09/16 15:59:43;;;;;;;1.60;0.50;;;11.70;99.90;;;;;;4962317;28;20296;-72
2022/09/16 16:02:23;;;;;;;0.30;0.30;;;11.70;99.90;;;;;;4962065;28;20206;-72
2022/09/16 16:04:50;;;;;;;0.50;0.47;;;11.70;99.90;;;;;;4964969;28;20206;-71
2022/09/16 16:07:40;;;;;;;2.80;0.80;;;11.70;99.90;;;;;;4963568;28;20236;-72
2022/09/16 16:10:16;;;;;;;0.60;0.60;;;11.70;99.90;;;;;;4964440;28;20246;-71
2022/09/16 16:12:46;;;;;;;6.07;0.73;;;11.70;99.90;;;;;;4965694;28;20220;-72
2022/09/16 16:15:14;;;;;;;0.17;0.17;;;11.70;99.90;;;;;;4960662;28;20216;-71
2022/09/16 16:17:41;;;;;;;0.30;0.30;;;11.80;99.90;;;;;;4992320;23;20239;-71
2022/09/16 16:20:11;;;;;;;3.15;1.10;;;11.80;99.90;;;;;;4989373;28;20268;-70
2022/09/16 16:22:37;;;;;;;0.52;0.52;;;11.80;99.90;;;;;;4979253;28;20209;-70
2022/09/16 16:25:04;;;;;;;3.50;1.10;;;11.80;99.90;;;;;;4983040;28;20212;-70
2022/09/16 16:27:32;;;;;;;4.22;0.47;;;11.80;99.90;;;;;;4971146;28;20228;-72
2022/09/16 16:30:00;;;;;;;0.20;0.20;;;11.80;99.90;;;;;;4952779;28;20207;-71
2022/09/16 16:32:26;;;;;;;3.85;0.47;;;11.80;99.90;;;;;;4969314;28;20261;-71
2022/09/16 16:34:56;;;;;;;2.20;0.45;;;11.80;99.90;;;;;;4960209;28;20212;-71
2022/09/16 16:37:24;;;;;;;0.20;0.20;;;11.80;99.90;;;;;;4967923;28;20337;-71
2022/09/16 16:39:51;;;;;;;1.27;1.10;;;11.80;99.90;;;;;;4969259;28;20229;-71
2022/09/16 16:42:18;;;;;;;0.38;0.38;;;11.90;99.90;;;;;;4964388;28;20724;-71
2022/09/16 16:44:45;;;;;;;0.40;0.40;;;11.90;99.90;;;;;;4961524;28;20214;-71
2022/09/16 16:47:13;;;;;;;1.00;0.90;;;11.80;99.90;;;;;;4966831;28;20233;-71
2022/09/16 16:49:40;;;;;;;0.75;0.75;;;11.90;99.90;;;;;;4965786;28;20204;-71
2022/09/16 16:52:07;;;;;;;0.70;0.70;;;11.90;99.90;;;;;;4957709;28;20206;-70
2022/09/16 16:54:34;;;;;;;0.45;0.45;;;11.90;99.90;;;;;;4970731;28;20211;-71
2022/09/16 16:57:03;;;;;;;0.85;0.85;;;11.90;99.90;;;;;;4957691;28;20230;-71
2022/09/16 16:59:30;;;;;;;0.40;0.40;;;11.90;99.90;;;;;;4964910;28;20254;-71
2022/09/16 17:01:58;;;;;;;1.63;1.63;;;11.90;99.90;;;;;;4971974;28;20227;-71
2022/09/16 17:04:26;;;;;;;0.70;0.70;;;11.90;99.90;;;;;;4969905;28;20299;-72
2022/09/16 17:06:53;;;;;;;0.88;0.60;;;12.00;99.90;;;;;;4966224;28;20292;-71
2022/09/16 17:09:20;;;;;;;1.05;0.60;;;12.00;99.90;;;;;;4970852;28;20216;-71